Port William, OH (45164)

1:01 PM EST on January 28, 2015 (GMT -0500)
APRSWXNET Wilmington OH US | Change Station
CLOSE
Current Station
Personal Weather Station
Location: Port William, OH
Elevation: 1027 ft
Nearby Weather Stations

Elev 1027 ft 39.50 °N, 83.80 °W | Updated 218 days ago

Clear
Clear
29 °F
Feels Like 29 °F
N
4
Wind Variable Wind from SSE
Gusts 3 mph

Today
High -- | Low -- °F
--% Chance of Precip.
Yesterday
High -- | Low -- °F
Precip. -- in
7:46 AM 5:50 PM
Waxing Gibbous, 66% visible
Pressure 30.44 in
Visibility 10.0 miles
Clouds Clear
Dew Point 16 °F
Humidity 55%
Rainfall 0.00 in
Snow Depth Not available.
UV 4 out of 12
Pollen .10 out of 12
Air Quality Not available.
Flu Activity Not available.
METAR KILN 281754Z AUTO 13005KT 10SM CLR M03/M10 A3032 RMK AO2 SLP307 T10331100 11028 21139 58011

More Conditions Fewer Conditions

Pressure 30.44 in
Visibility 10.0 miles
Clouds Clear
Dew Point 16 °F
Humidity 55%
Rainfall 0.00 in
Snow Depth Not available.
UV 4 out of 12
Pollen .10 out of 12
Air Quality Not available.
Flu Activity Not available.
METAR KILN 281754Z AUTO 13005KT 10SM CLR M03/M10 A3032 RMK AO2 SLP307 T10331100 11028 21139 58011

More Conditions Fewer Conditions

10-Day Weather Forecast

Almanac

Astronomy

Jan. 28, 2015 Rise Set
Actual Time
Civil Twilight
Nautical Twilight
Astronomical Twilight
Moon
Length of Visible Light
Length of Day
Tomorrow will be .
, % of the Moon is Illuminated

Today's Extremes

State Highs State Lows

Community

WunderPhotos

Upload Photos

1,791,236 photos uploaded!

WunderBlogs® & News

Nearby

Air Quality

  Air Quality AQ Index Pollutant
Not available.

Snow Depth

Station Depth Elevation

Earthquake Activity

City Distance Mag. Time & Date
Minimum magnitude displayed is 2.5.

Coastal Water Temperatures

Place Temperature

Nearby Weather Stations